sensor_id;sensor_type;location;lat;lon;timestamp;pressure;altitude;pressure_sealevel;temperature;humidity
65151;BME280;51918;51.856;0.150;2022-09-01T00:04:58;101327.13;;;15.70;58.71
65151;BME280;51918;51.856;0.150;2022-09-01T00:10:01;101320.34;;;15.69;58.83
65151;BME280;51918;51.856;0.150;2022-09-01T00:15:03;101311.28;;;15.65;58.82
65151;BME280;51918;51.856;0.150;2022-09-01T00:20:05;101310.31;;;15.66;59.41
65151;BME280;51918;51.856;0.150;2022-09-01T00:25:08;101301.72;;;15.65;59.29
65151;BME280;51918;51.856;0.150;2022-09-01T00:30:09;101304.47;;;15.64;59.30
65151;BME280;51918;51.856;0.150;2022-09-01T00:35:10;101306.06;;;15.50;59.07
65151;BME280;51918;51.856;0.150;2022-09-01T00:40:14;101303.34;;;15.66;59.13
65151;BME280;51918;51.856;0.150;2022-09-01T00:45:15;101294.56;;;15.67;59.19
65151;BME280;51918;51.856;0.150;2022-09-01T00:50:18;101291.50;;;15.64;59.33
65151;BME280;51918;51.856;0.150;2022-09-01T00:55:24;101291.72;;;15.62;59.32
65151;BME280;51918;51.856;0.150;2022-09-01T01:00:29;101298.66;;;15.61;59.52
65151;BME280;51918;51.856;0.150;2022-09-01T01:05:32;101297.69;;;15.63;59.26
65151;BME280;51918;51.856;0.150;2022-09-01T01:10:37;101285.69;;;15.61;59.40
65151;BME280;51918;51.856;0.150;2022-09-01T01:15:38;101286.22;;;15.57;59.68
65151;BME280;51918;51.856;0.150;2022-09-01T01:20:40;101283.63;;;15.57;59.77
65151;BME280;51918;51.856;0.150;2022-09-01T01:25:45;101285.44;;;15.56;59.78
65151;BME280;51918;51.856;0.150;2022-09-01T01:30:49;101278.00;;;15.53;60.00
65151;BME280;51918;51.856;0.150;2022-09-01T01:35:51;101266.19;;;15.51;59.74
65151;BME280;51918;51.856;0.150;2022-09-01T01:40:54;101268.50;;;15.46;59.93
65151;BME280;51918;51.856;0.150;2022-09-01T01:45:55;101257.03;;;15.40;60.00
65151;BME280;51918;51.856;0.150;2022-09-01T01:50:56;101259.03;;;15.38;60.02
65151;BME280;51918;51.856;0.150;2022-09-01T01:55:58;101267.50;;;15.32;60.59
65151;BME280;51918;51.856;0.150;2022-09-01T02:00:59;101262.63;;;15.29;60.61
65151;BME280;51918;51.856;0.150;2022-09-01T02:05:59;101257.19;;;15.24;60.81
65151;BME280;51918;51.856;0.150;2022-09-01T02:11:03;101259.19;;;15.13;61.14
65151;BME280;51918;51.856;0.150;2022-09-01T02:16:07;101246.94;;;15.07;61.61
65151;BME280;51918;51.856;0.150;2022-09-01T02:21:09;101244.34;;;15.07;61.85
65151;BME280;51918;51.856;0.150;2022-09-01T02:26:12;101250.50;;;15.06;61.93
65151;BME280;51918;51.856;0.150;2022-09-01T02:31:12;101237.25;;;15.01;62.47
65151;BME280;51918;51.856;0.150;2022-09-01T02:36:15;101238.41;;;14.98;62.96
65151;BME280;51918;51.856;0.150;2022-09-01T02:41:18;101231.28;;;15.01;63.22
65151;BME280;51918;51.856;0.150;2022-09-01T02:46:18;101234.03;;;14.99;63.25
65151;BME280;51918;51.856;0.150;2022-09-01T02:51:21;101236.63;;;14.99;63.90
65151;BME280;51918;51.856;0.150;2022-09-01T02:56:24;101224.94;;;15.03;63.56
65151;BME280;51918;51.856;0.150;2022-09-01T03:01:27;101226.19;;;15.07;63.78
65151;BME280;51918;51.856;0.150;2022-09-01T03:06:29;101228.91;;;15.14;63.68
65151;BME280;51918;51.856;0.150;2022-09-01T03:11:32;101230.00;;;15.19;64.03
65151;BME280;51918;51.856;0.150;2022-09-01T03:16:34;101224.81;;;15.19;65.90
65151;BME280;51918;51.856;0.150;2022-09-01T03:21:35;101216.06;;;15.35;64.60
65151;BME280;51918;51.856;0.150;2022-09-01T03:26:38;101208.53;;;15.49;65.03
65151;BME280;51918;51.856;0.150;2022-09-01T03:31:38;101214.59;;;15.56;65.17
65151;BME280;51918;51.856;0.150;2022-09-01T03:36:39;101211.31;;;15.62;65.60
65151;BME280;51918;51.856;0.150;2022-09-01T03:41:41;101209.69;;;15.76;65.37
65151;BME280;51918;51.856;0.150;2022-09-01T03:46:42;101210.09;;;15.88;65.14
65151;BME280;51918;51.856;0.150;2022-09-01T03:51:43;101202.41;;;15.94;65.34
65151;BME280;51918;51.856;0.150;2022-09-01T03:56:45;101200.16;;;15.91;65.23
65151;BME280;51918;51.856;0.150;2022-09-01T04:01:45;101190.66;;;16.13;64.73
65151;BME280;51918;51.856;0.150;2022-09-01T04:06:46;101193.13;;;16.21;64.83
65151;BME280;51918;51.856;0.150;2022-09-01T04:11:48;101184.53;;;16.21;65.20
65151;BME280;51918;51.856;0.150;2022-09-01T04:16:49;101178.38;;;16.22;65.21
65151;BME280;51918;51.856;0.150;2022-09-01T04:21:51;101172.78;;;16.40;64.45
65151;BME280;51918;51.856;0.150;2022-09-01T04:26:54;101176.31;;;16.17;65.83
65151;BME280;51918;51.856;0.150;2022-09-01T04:31:57;101167.41;;;16.41;64.94
65151;BME280;51918;51.856;0.150;2022-09-01T04:36:58;101169.72;;;16.36;64.72
65151;BME280;51918;51.856;0.150;2022-09-01T04:42:00;101162.88;;;16.29;65.58
65151;BME280;51918;51.856;0.150;2022-09-01T04:47:00;101166.44;;;16.28;65.46
65151;BME280;51918;51.856;0.150;2022-09-01T04:52:02;101169.22;;;16.26;65.18
65151;BME280;51918;51.856;0.150;2022-09-01T04:57:04;101163.53;;;16.16;65.95
65151;BME280;51918;51.856;0.150;2022-09-01T05:02:05;101176.94;;;16.19;65.94
65151;BME280;51918;51.856;0.150;2022-09-01T05:07:06;101164.91;;;16.33;65.21
65151;BME280;51918;51.856;0.150;2022-09-01T05:12:08;101176.66;;;16.29;65.65
65151;BME280;51918;51.856;0.150;2022-09-01T05:17:10;101175.03;;;16.28;65.80
65151;BME280;51918;51.856;0.150;2022-09-01T05:22:11;101170.47;;;16.52;64.71
65151;BME280;51918;51.856;0.150;2022-09-01T05:27:12;101177.16;;;16.39;64.92
65151;BME280;51918;51.856;0.150;2022-09-01T05:32:13;101168.31;;;16.55;64.80
65151;BME280;51918;51.856;0.150;2022-09-01T05:37:13;101171.47;;;16.51;65.05
65151;BME280;51918;51.856;0.150;2022-09-01T05:42:15;101173.91;;;16.52;65.66
65151;BME280;51918;51.856;0.150;2022-09-01T05:47:16;101178.34;;;16.58;65.28
65151;BME280;51918;51.856;0.150;2022-09-01T05:52:17;101176.44;;;16.67;65.01
65151;BME280;51918;51.856;0.150;2022-09-01T05:57:19;101182.50;;;16.74;64.98
65151;BME280;51918;51.856;0.150;2022-09-01T06:02:20;101181.88;;;16.72;65.17
65151;BME280;51918;51.856;0.150;2022-09-01T06:07:20;101177.47;;;16.51;66.15
65151;BME280;51918;51.856;0.150;2022-09-01T06:12:23;101174.31;;;16.99;64.38
65151;BME280;51918;51.856;0.150;2022-09-01T06:17:25;101176.13;;;17.27;63.87
65151;BME280;51918;51.856;0.150;2022-09-01T06:22:27;101183.00;;;17.34;63.42
65151;BME280;51918;51.856;0.150;2022-09-01T06:27:29;101185.91;;;17.53;63.17
65151;BME280;51918;51.856;0.150;2022-09-01T06:32:30;101169.53;;;17.59;62.67
65151;BME280;51918;51.856;0.150;2022-09-01T06:37:30;101172.06;;;17.80;62.52
65151;BME280;51918;51.856;0.150;2022-09-01T06:42:32;101166.88;;;17.80;62.31
65151;BME280;51918;51.856;0.150;2022-09-01T06:47:33;101165.16;;;18.01;61.79
65151;BME280;51918;51.856;0.150;2022-09-01T06:52:33;101173.94;;;18.00;61.78
65151;BME280;51918;51.856;0.150;2022-09-01T06:57:35;101153.56;;;18.10;61.53
65151;BME280;51918;51.856;0.150;2022-09-01T07:02:36;101155.81;;;18.20;61.29
65151;BME280;51918;51.856;0.150;2022-09-01T07:07:36;101147.41;;;18.18;61.13
65151;BME280;51918;51.856;0.150;2022-09-01T07:12:38;101166.63;;;18.30;60.66
65151;BME280;51918;51.856;0.150;2022-09-01T07:17:39;101165.47;;;18.39;60.71
65151;BME280;51918;51.856;0.150;2022-09-01T07:22:39;101174.34;;;18.58;60.58
65151;BME280;51918;51.856;0.150;2022-09-01T07:27:41;101178.56;;;18.86;59.31
65151;BME280;51918;51.856;0.150;2022-09-01T07:32:42;101179.56;;;18.98;58.93
65151;BME280;51918;51.856;0.150;2022-09-01T07:37:43;101186.41;;;19.19;58.39
65151;BME280;51918;51.856;0.150;2022-09-01T07:42:45;101171.13;;;19.16;58.39
65151;BME280;51918;51.856;0.150;2022-09-01T07:47:45;101179.97;;;19.15;58.08
65151;BME280;51918;51.856;0.150;2022-09-01T07:52:46;101176.13;;;19.31;57.74
65151;BME280;51918;51.856;0.150;2022-09-01T07:57:48;101179.56;;;19.45;57.76
65151;BME280;51918;51.856;0.150;2022-09-01T08:02:48;101182.69;;;19.74;57.42
65151;BME280;51918;51.856;0.150;2022-09-01T08:07:50;101185.72;;;19.57;56.71
65151;BME280;51918;51.856;0.150;2022-09-01T08:12:52;101192.00;;;19.43;57.04
65151;BME280;51918;51.856;0.150;2022-09-01T08:17:53;101193.72;;;19.76;56.45
65151;BME280;51918;51.856;0.150;2022-09-01T08:22:53;101179.44;;;19.85;56.04
65151;BME280;51918;51.856;0.150;2022-09-01T08:27:55;101188.75;;;20.13;55.40
65151;BME280;51918;51.856;0.150;2022-09-01T08:32:56;101183.09;;;20.29;54.95
65151;BME280;51918;51.856;0.150;2022-09-01T08:37:57;101186.66;;;20.35;53.44
65151;BME280;51918;51.856;0.150;2022-09-01T08:43:08;101187.66;;;20.90;52.68
65151;BME280;51918;51.856;0.150;2022-09-01T08:48:15;101179.06;;;21.34;51.57
65151;BME280;51918;51.856;0.150;2022-09-01T08:53:21;101194.25;;;21.25;49.86
65151;BME280;51918;51.856;0.150;2022-09-01T08:58:28;101196.56;;;21.15;49.77
65151;BME280;51918;51.856;0.150;2022-09-01T09:03:37;101190.75;;;21.13;50.34
65151;BME280;51918;51.856;0.150;2022-09-01T09:08:52;101176.38;;;21.40;50.32
65151;BME280;51918;51.856;0.150;2022-09-01T09:13:59;101186.28;;;21.75;49.62
65151;BME280;51918;51.856;0.150;2022-09-01T09:19:04;101169.13;;;21.79;48.99
65151;BME280;51918;51.856;0.150;2022-09-01T09:24:10;101160.66;;;21.59;47.30
65151;BME280;51918;51.856;0.150;2022-09-01T09:29:13;101164.97;;;21.90;47.08
65151;BME280;51918;51.856;0.150;2022-09-01T09:34:29;101157.47;;;21.75;46.18
65151;BME280;51918;51.856;0.150;2022-09-01T09:39:30;101155.66;;;21.94;46.15
65151;BME280;51918;51.856;0.150;2022-09-01T09:44:32;101161.00;;;22.41;45.80
65151;BME280;51918;51.856;0.150;2022-09-01T09:49:34;101164.28;;;22.67;44.78
65151;BME280;51918;51.856;0.150;2022-09-01T09:54:37;101153.47;;;22.99;43.96
65151;BME280;51918;51.856;0.150;2022-09-01T09:59:41;101146.75;;;22.79;43.79
65151;BME280;51918;51.856;0.150;2022-09-01T10:04:44;101150.38;;;23.13;43.68
65151;BME280;51918;51.856;0.150;2022-09-01T10:09:44;101143.41;;;23.07;42.99
65151;BME280;51918;51.856;0.150;2022-09-01T10:14:50;101134.63;;;23.37;42.89
65151;BME280;51918;51.856;0.150;2022-09-01T10:19:56;101137.03;;;23.67;42.38
65151;BME280;51918;51.856;0.150;2022-09-01T10:24:58;101134.22;;;24.14;42.49
65151;BME280;51918;51.856;0.150;2022-09-01T10:30:06;101131.34;;;25.01;41.18
65151;BME280;51918;51.856;0.150;2022-09-01T10:35:12;101127.19;;;25.49;39.10
65151;BME280;51918;51.856;0.150;2022-09-01T10:40:33;101123.63;;;26.09;38.58
65151;BME280;51918;51.856;0.150;2022-09-01T10:45:37;101112.59;;;26.17;36.79
65151;BME280;51918;51.856;0.150;2022-09-01T10:50:38;101125.31;;;26.21;36.21
65151;BME280;51918;51.856;0.150;2022-09-01T10:55:46;101110.47;;;25.60;35.31
65151;BME280;51918;51.856;0.150;2022-09-01T11:00:51;101097.91;;;25.67;34.36
65151;BME280;51918;51.856;0.150;2022-09-01T11:05:58;101096.50;;;24.93;33.43
65151;BME280;51918;51.856;0.150;2022-09-01T11:11:03;101095.88;;;24.86;33.49
65151;BME280;51918;51.856;0.150;2022-09-01T11:16:29;101084.28;;;24.48;33.15
65151;BME280;51918;51.856;0.150;2022-09-01T11:21:30;101079.75;;;24.44;31.98
65151;BME280;51918;51.856;0.150;2022-09-01T11:26:45;101082.63;;;24.59;32.08
65151;BME280;51918;51.856;0.150;2022-09-01T11:31:47;101073.94;;;24.98;32.49
65151;BME280;51918;51.856;0.150;2022-09-01T11:36:57;101065.47;;;24.95;31.90
65151;BME280;51918;51.856;0.150;2022-09-01T11:42:01;101065.16;;;25.14;31.38
65151;BME280;51918;51.856;0.150;2022-09-01T11:47:06;101065.72;;;25.16;30.79
65151;BME280;51918;51.856;0.150;2022-09-01T11:52:14;101056.00;;;25.39;30.81
65151;BME280;51918;51.856;0.150;2022-09-01T11:57:21;101053.84;;;25.35;31.10
65151;BME280;51918;51.856;0.150;2022-09-01T12:02:25;101044.78;;;25.26;30.58
65151;BME280;51918;51.856;0.150;2022-09-01T12:07:34;101046.50;;;25.15;30.35
65151;BME280;51918;51.856;0.150;2022-09-01T12:12:38;101041.28;;;24.99;30.34
65151;BME280;51918;51.856;0.150;2022-09-01T12:17:40;101048.72;;;25.24;30.73
65151;BME280;51918;51.856;0.150;2022-09-01T12:22:41;101042.94;;;25.27;30.66
65151;BME280;51918;51.856;0.150;2022-09-01T12:27:42;101037.19;;;25.30;30.71
65151;BME280;51918;51.856;0.150;2022-09-01T12:32:45;101032.53;;;25.37;31.25
65151;BME280;51918;51.856;0.150;2022-09-01T12:37:46;101030.56;;;25.49;31.19
65151;BME280;51918;51.856;0.150;2022-09-01T12:42:48;101029.72;;;25.49;31.53
65151;BME280;51918;51.856;0.150;2022-09-01T12:47:51;101028.41;;;25.46;32.10
65151;BME280;51918;51.856;0.150;2022-09-01T12:52:53;101018.31;;;25.38;32.25
65151;BME280;51918;51.856;0.150;2022-09-01T12:57:56;101026.31;;;25.48;31.96
65151;BME280;51918;51.856;0.150;2022-09-01T13:03:09;101013.91;;;25.49;31.69
65151;BME280;51918;51.856;0.150;2022-09-01T13:08:12;101016.63;;;25.54;31.85
65151;BME280;51918;51.856;0.150;2022-09-01T13:13:13;101007.63;;;25.82;32.29
65151;BME280;51918;51.856;0.150;2022-09-01T13:18:17;100997.56;;;25.79;31.88
65151;BME280;51918;51.856;0.150;2022-09-01T13:23:18;100991.81;;;25.82;32.38
65151;BME280;51918;51.856;0.150;2022-09-01T13:28:19;101002.97;;;25.89;31.54
65151;BME280;51918;51.856;0.150;2022-09-01T13:33:21;101002.97;;;25.89;31.67
65151;BME280;51918;51.856;0.150;2022-09-01T13:38:22;100999.00;;;25.87;31.91
65151;BME280;51918;51.856;0.150;2022-09-01T13:43:24;100985.69;;;25.71;31.59
65151;BME280;51918;51.856;0.150;2022-09-01T13:48:26;100985.91;;;26.02;31.18
65151;BME280;51918;51.856;0.150;2022-09-01T13:53:27;100980.72;;;26.12;32.01
65151;BME280;51918;51.856;0.150;2022-09-01T13:58:28;100972.28;;;26.15;31.39
65151;BME280;51918;51.856;0.150;2022-09-01T14:03:30;100974.81;;;25.95;31.53
65151;BME280;51918;51.856;0.150;2022-09-01T14:08:30;100969.00;;;25.98;31.64
65151;BME280;51918;51.856;0.150;2022-09-01T14:13:32;100966.50;;;26.18;31.69
65151;BME280;51918;51.856;0.150;2022-09-01T14:18:34;100966.53;;;26.24;31.51
65151;BME280;51918;51.856;0.150;2022-09-01T14:23:35;100967.28;;;26.14;31.68
65151;BME280;51918;51.856;0.150;2022-09-01T14:28:35;100963.75;;;25.98;31.51
65151;BME280;51918;51.856;0.150;2022-09-01T14:33:38;100957.88;;;25.86;31.95
65151;BME280;51918;51.856;0.150;2022-09-01T14:38:39;100951.03;;;25.90;31.66
65151;BME280;51918;51.856;0.150;2022-09-01T14:43:40;100949.00;;;25.97;31.24
65151;BME280;51918;51.856;0.150;2022-09-01T14:48:42;100948.13;;;25.86;32.08
65151;BME280;51918;51.856;0.150;2022-09-01T14:53:43;100943.81;;;25.75;31.92
65151;BME280;51918;51.856;0.150;2022-09-01T14:58:43;100942.66;;;25.66;31.92
65151;BME280;51918;51.856;0.150;2022-09-01T15:03:47;100937.59;;;25.54;32.25
65151;BME280;51918;51.856;0.150;2022-09-01T15:08:48;100933.19;;;25.32;33.19
65151;BME280;51918;51.856;0.150;2022-09-01T15:13:49;100929.56;;;25.39;33.90
65151;BME280;51918;51.856;0.150;2022-09-01T15:18:51;100928.38;;;25.24;33.75
65151;BME280;51918;51.856;0.150;2022-09-01T15:23:52;100927.25;;;25.20;34.14
65151;BME280;51918;51.856;0.150;2022-09-01T15:28:53;100929.78;;;25.10;34.54
65151;BME280;51918;51.856;0.150;2022-09-01T15:33:56;100914.97;;;25.04;34.33
65151;BME280;51918;51.856;0.150;2022-09-01T15:38:57;100908.97;;;24.81;35.28
65151;BME280;51918;51.856;0.150;2022-09-01T15:43:58;100918.41;;;24.77;35.18
65151;BME280;51918;51.856;0.150;2022-09-01T15:49:01;100905.94;;;24.67;35.74
65151;BME280;51918;51.856;0.150;2022-09-01T15:54:04;100909.09;;;24.91;36.21
65151;BME280;51918;51.856;0.150;2022-09-01T15:59:06;100904.69;;;24.75;35.84
65151;BME280;51918;51.856;0.150;2022-09-01T16:04:11;100894.72;;;24.77;35.87
65151;BME280;51918;51.856;0.150;2022-09-01T16:09:12;100889.50;;;24.82;35.89
65151;BME280;51918;51.856;0.150;2022-09-01T16:14:13;100895.94;;;24.91;35.69
65151;BME280;51918;51.856;0.150;2022-09-01T16:19:25;100890.88;;;24.63;36.20
65151;BME280;51918;51.856;0.150;2022-09-01T16:24:28;100895.19;;;24.30;36.73
65151;BME280;51918;51.856;0.150;2022-09-01T16:29:36;100891.22;;;24.49;36.60
65151;BME280;51918;51.856;0.150;2022-09-01T16:34:40;100887.22;;;24.64;36.61
65151;BME280;51918;51.856;0.150;2022-09-01T16:39:45;100888.56;;;24.22;36.59
65151;BME280;51918;51.856;0.150;2022-09-01T16:44:57;100888.03;;;23.69;38.26
65151;BME280;51918;51.856;0.150;2022-09-01T16:50:10;100891.63;;;23.80;38.00
65151;BME280;51918;51.856;0.150;2022-09-01T16:55:20;100892.03;;;23.72;37.11
65151;BME280;51918;51.856;0.150;2022-09-01T17:00:29;100888.69;;;23.60;37.75
65151;BME280;51918;51.856;0.150;2022-09-01T17:05:37;100884.22;;;23.26;38.63
65151;BME280;51918;51.856;0.150;2022-09-01T17:10:42;100884.00;;;23.16;38.93
65151;BME280;51918;51.856;0.150;2022-09-01T17:15:51;100888.53;;;23.04;39.72
65151;BME280;51918;51.856;0.150;2022-09-01T17:20:59;100885.94;;;23.04;39.83
65151;BME280;51918;51.856;0.150;2022-09-01T17:26:03;100890.75;;;23.12;39.84
65151;BME280;51918;51.856;0.150;2022-09-01T17:31:09;100891.19;;;23.21;40.24
65151;BME280;51918;51.856;0.150;2022-09-01T17:36:17;100893.59;;;22.93;40.16
65151;BME280;51918;51.856;0.150;2022-09-01T17:41:25;100884.31;;;23.03;39.36
65151;BME280;51918;51.856;0.150;2022-09-01T17:46:35;100883.50;;;22.73;40.28
65151;BME280;51918;51.856;0.150;2022-09-01T17:51:46;100885.72;;;22.65;40.46
65151;BME280;51918;51.856;0.150;2022-09-01T17:56:55;100887.78;;;22.63;40.88
65151;BME280;51918;51.856;0.150;2022-09-01T18:02:07;100884.69;;;22.66;40.66
65151;BME280;51918;51.856;0.150;2022-09-01T18:07:25;100893.84;;;22.40;41.72
65151;BME280;51918;51.856;0.150;2022-09-01T18:12:33;100885.78;;;22.18;42.18
65151;BME280;51918;51.856;0.150;2022-09-01T18:17:38;100880.00;;;21.92;42.86
65151;BME280;51918;51.856;0.150;2022-09-01T18:22:45;100887.84;;;21.68;43.81
65151;BME280;51918;51.856;0.150;2022-09-01T18:27:47;100883.94;;;21.59;44.02
65151;BME280;51918;51.856;0.150;2022-09-01T18:32:52;100878.59;;;21.54;44.27
65151;BME280;51918;51.856;0.150;2022-09-01T18:38:17;100882.09;;;21.48;44.65
65151;BME280;51918;51.856;0.150;2022-09-01T18:43:25;100884.59;;;21.43;44.37
65151;BME280;51918;51.856;0.150;2022-09-01T18:48:30;100888.41;;;21.17;45.01
65151;BME280;51918;51.856;0.150;2022-09-01T18:53:42;100893.56;;;21.23;45.08
65151;BME280;51918;51.856;0.150;2022-09-01T18:58:54;100890.31;;;21.09;45.66
65151;BME280;51918;51.856;0.150;2022-09-01T19:04:05;100894.97;;;21.07;45.76
65151;BME280;51918;51.856;0.150;2022-09-01T19:09:13;100898.81;;;20.86;46.32
65151;BME280;51918;51.856;0.150;2022-09-01T19:14:27;100884.78;;;20.51;47.16
65151;BME280;51918;51.856;0.150;2022-09-01T19:19:38;100891.97;;;20.74;46.30
65151;BME280;51918;51.856;0.150;2022-09-01T19:24:46;100891.59;;;20.52;46.94
65151;BME280;51918;51.856;0.150;2022-09-01T19:29:50;100896.53;;;20.60;46.66
65151;BME280;51918;51.856;0.150;2022-09-01T19:34:54;100896.31;;;20.61;46.43
65151;BME280;51918;51.856;0.150;2022-09-01T19:39:57;100901.63;;;20.55;47.04
65151;BME280;51918;51.856;0.150;2022-09-01T19:45:03;100904.25;;;20.55;46.86
65151;BME280;51918;51.856;0.150;2022-09-01T19:50:11;100909.75;;;20.46;47.13
65151;BME280;51918;51.856;0.150;2022-09-01T19:55:17;100919.13;;;20.36;47.52
65151;BME280;51918;51.856;0.150;2022-09-01T20:00:24;100906.72;;;20.31;47.85
65151;BME280;51918;51.856;0.150;2022-09-01T20:05:27;100922.78;;;20.28;47.65
65151;BME280;51918;51.856;0.150;2022-09-01T20:10:42;100912.22;;;20.23;47.98
65151;BME280;51918;51.856;0.150;2022-09-01T20:15:51;100916.41;;;20.24;47.81
65151;BME280;51918;51.856;0.150;2022-09-01T20:20:54;100904.03;;;20.13;48.18
65151;BME280;51918;51.856;0.150;2022-09-01T20:26:01;100906.72;;;20.06;48.23
65151;BME280;51918;51.856;0.150;2022-09-01T20:31:08;100901.81;;;19.91;48.59
65151;BME280;51918;51.856;0.150;2022-09-01T20:36:13;100899.06;;;19.86;48.73
65151;BME280;51918;51.856;0.150;2022-09-01T20:41:19;100891.44;;;19.84;48.87
65151;BME280;51918;51.856;0.150;2022-09-01T20:46:24;100896.91;;;19.76;49.25
65151;BME280;51918;51.856;0.150;2022-09-01T20:51:34;100894.34;;;19.70;49.27
65151;BME280;51918;51.856;0.150;2022-09-01T20:56:43;100877.78;;;19.57;49.59
65151;BME280;51918;51.856;0.150;2022-09-01T21:01:50;100872.56;;;19.57;49.79
65151;BME280;51918;51.856;0.150;2022-09-01T21:06:56;100874.44;;;19.50;50.26
65151;BME280;51918;51.856;0.150;2022-09-01T21:12:06;100867.25;;;19.39;51.10
65151;BME280;51918;51.856;0.150;2022-09-01T21:17:13;100864.47;;;19.34;51.21
65151;BME280;51918;51.856;0.150;2022-09-01T21:22:16;100860.44;;;19.38;51.68
65151;BME280;51918;51.856;0.150;2022-09-01T21:27:22;100865.06;;;19.36;51.52
65151;BME280;51918;51.856;0.150;2022-09-01T21:32:24;100855.78;;;19.40;51.78
65151;BME280;51918;51.856;0.150;2022-09-01T21:37:26;100858.47;;;19.33;52.09
65151;BME280;51918;51.856;0.150;2022-09-01T21:42:31;100865.69;;;19.31;52.61
65151;BME280;51918;51.856;0.150;2022-09-01T21:47:32;100860.53;;;19.24;52.98
65151;BME280;51918;51.856;0.150;2022-09-01T21:52:33;100865.94;;;19.30;52.92
65151;BME280;51918;51.856;0.150;2022-09-01T21:57:36;100862.97;;;19.19;53.30
65151;BME280;51918;51.856;0.150;2022-09-01T22:02:36;100862.78;;;19.21;53.12
65151;BME280;51918;51.856;0.150;2022-09-01T22:07:38;100866.84;;;19.10;53.66
65151;BME280;51918;51.856;0.150;2022-09-01T22:12:42;100862.78;;;19.21;53.13
65151;BME280;51918;51.856;0.150;2022-09-01T22:17:43;100858.63;;;19.06;53.63
65151;BME280;51918;51.856;0.150;2022-09-01T22:22:44;100848.78;;;19.09;53.63
65151;BME280;51918;51.856;0.150;2022-09-01T22:27:46;100859.03;;;19.10;53.53
65151;BME280;51918;51.856;0.150;2022-09-01T22:32:47;100860.06;;;19.02;53.71
65151;BME280;51918;51.856;0.150;2022-09-01T22:37:48;100861.88;;;19.02;53.97
65151;BME280;51918;51.856;0.150;2022-09-01T22:42:50;100865.50;;;18.94;54.20
65151;BME280;51918;51.856;0.150;2022-09-01T22:47:50;100865.50;;;18.94;54.26
65151;BME280;51918;51.856;0.150;2022-09-01T22:52:51;100860.72;;;18.91;54.31
65151;BME280;51918;51.856;0.150;2022-09-01T22:57:53;100862.91;;;18.94;54.22
65151;BME280;51918;51.856;0.150;2022-09-01T23:02:53;100854.50;;;18.92;54.20
65151;BME280;51918;51.856;0.150;2022-09-01T23:07:54;100853.09;;;18.90;54.47
65151;BME280;51918;51.856;0.150;2022-09-01T23:12:56;100842.09;;;18.88;54.29
65151;BME280;51918;51.856;0.150;2022-09-01T23:17:57;100855.19;;;18.74;55.02
65151;BME280;51918;51.856;0.150;2022-09-01T23:22:57;100847.16;;;18.76;55.01
65151;BME280;51918;51.856;0.150;2022-09-01T23:27:59;100842.16;;;18.74;55.24
65151;BME280;51918;51.856;0.150;2022-09-01T23:33:00;100838.16;;;18.72;55.43
65151;BME280;51918;51.856;0.150;2022-09-01T23:38:00;100840.78;;;18.72;55.34
65151;BME280;51918;51.856;0.150;2022-09-01T23:43:02;100841.38;;;18.74;55.46
65151;BME280;51918;51.856;0.150;2022-09-01T23:48:03;100840.34;;;18.75;55.54
65151;BME280;51918;51.856;0.150;2022-09-01T23:53:04;100827.31;;;18.75;55.57
65151;BME280;51918;51.856;0.150;2022-09-01T23:58:06;100835.53;;;18.78;55.45
